Taylors, South Carolina
Current Conditions -  °F | °C
As of 1:53 AM on Thursday 27 Nov 2014 (Local Time) from KGMU Reporting Station
Light Rain Light Rain  
Wind Chill: 40°   Ceiling: 7000
Heat Index: 45°   Visibility: 10mi
Dew Point: 31°   Wind: 10mph
Humidity: 58%   Direction: 250°WSW
Pressure: 30"   Gusts: 18mph
Location:  34.89°N, 82.3°W
Report Text: KGMU 270653Z AUTO 25009G16KT 10SM -RA FEW038 BKN070 BKN080 07/M01 A3000 RMK AO2 RAB0554E26B45 SLP159 P0000 T00721006
Loading
Personal Weather Stations






























Interactive Weather Map New forecast layout! Learn more

10-Day Weather Forecast

Advertisements
Track Severe Weather on mobile